Angleton, TX

8:38 PM CST on February 12, 2016 (GMT -0600)
Akers Subdivision | | Change Station
CLOSE
Current Station
Personal Weather Station
Location: Angleton, TX
Elevation: 43 ft
Nearby Weather Stations

Elev 43 ft 29.17 °N, 95.43 °W | Updated 10 minutes ago

Clear
Clear
62.8 °F
Feels Like 62.8 °F
N
0.0
Wind Variable Wind from West

Today
High -- | Low -- °F
--% Chance of Precip.
Yesterday
High -- | Low -- °F
Precip. -- in
Pressure 30.24 in
Visibility 10.0 miles
Clouds Clear
Dew Point 56 °F
Humidity 78%
Rainfall 0.00 in
Snow Depth Not available.
7:03 AM 6:08 PM
Waxing Crescent, 26% visible
METAR KLBX 130153Z AUTO 19004KT 10SM CLR 17/14 A3024 RMK AO2 SLP239 T01670144
Pressure 30.24 in
Visibility 10.0 miles
Clouds Clear
Dew Point 56 °F
Humidity 78%
Rainfall 0.00 in
Snow Depth Not available.
7:03 AM 6:08 PM
Waxing Crescent, 26% visible
METAR KLBX 130153Z AUTO 19004KT 10SM CLR 17/14 A3024 RMK AO2 SLP239 T01670144

10-Day Weather Forecast

Almanac

Astronomy

Feb. 12, 2016 Rise Set
Actual Time
Civil Twilight
Nautical Twilight
Astronomical Twilight
Moon
Length of Visible Light
Length of Day
Tomorrow will be .
, % of the Moon is Illuminated

Today's Extremes

State Highs State Lows

Community

WunderPhotos

Upload Photos

1,892,464 photos uploaded!

WunderBlog® & News

Nearby

Air Quality

  Air Quality AQ Index Pollutant
Not available.

Snow Depth

Station Depth Elevation

Earthquake Activity

City Distance Mag. Time & Date
Minimum magnitude displayed is 2.5.

Coastal Water Temperatures

Place Temperature

Stations

Nearby Weather Stations

Station Location Temp. Windchill Dew Point Humidity Wind Precip. Elev Updated Type
                   

Watches & Warnings

There are currently no watches in effect.